createdAt,value
2024-04-12T00:02:13.652Z,78.01
2024-04-12T00:04:42.866Z,78.04
2024-04-12T00:07:19.393Z,78.07
2024-04-12T00:09:55.799Z,77.92
2024-04-12T00:12:29.758Z,77.89
2024-04-12T00:15:04.174Z,77.97
2024-04-12T00:17:35.248Z,78.20
2024-04-12T00:20:03.287Z,78.31
2024-04-12T00:22:33.978Z,78.41
2024-04-12T00:25:01.720Z,78.43
2024-04-12T00:27:35.772Z,78.36
2024-04-12T00:30:05.904Z,78.44
2024-04-12T00:32:37.910Z,78.55
2024-04-12T00:35:08.046Z,78.53
2024-04-12T00:37:41.421Z,78.51
2024-04-12T00:40:09.745Z,78.43
2024-04-12T00:42:39.635Z,78.35
2024-04-12T00:45:13.516Z,78.35
2024-04-12T00:47:43.904Z,78.28
2024-04-12T00:50:17.981Z,78.08
2024-04-12T00:52:54.043Z,77.96
2024-04-12T00:55:21.426Z,77.89
2024-04-12T00:57:53.665Z,77.89
2024-04-12T01:00:21.797Z,77.76
2024-04-12T01:02:52.787Z,77.71
2024-04-12T01:05:21.176Z,77.83
2024-04-12T01:07:57.724Z,77.92
2024-04-12T01:10:28.168Z,78.03
2024-04-12T01:13:04.461Z,78.03
2024-04-12T01:15:33.760Z,77.92
2024-04-12T01:18:06.790Z,78.02
2024-04-12T01:20:36.355Z,78.17
2024-04-12T01:23:07.509Z,78.42
2024-04-12T01:25:36.131Z,78.52
2024-04-12T01:28:06.619Z,78.43
2024-04-12T01:30:36.507Z,78.52
2024-04-12T01:33:08.053Z,78.55
2024-04-12T01:35:35.668Z,78.58
2024-04-12T01:38:20.208Z,78.44
2024-04-12T01:40:58.330Z,78.20
2024-04-12T01:43:29.436Z,78.23
2024-04-12T01:45:57.096Z,78.32
2024-04-12T01:48:30.411Z,78.43
2024-04-12T01:50:57.951Z,78.41
2024-04-12T01:53:28.607Z,78.45
2024-04-12T01:55:56.573Z,78.45
2024-04-12T01:58:28.300Z,78.48
2024-04-12T02:00:55.926Z,78.54
2024-04-12T02:03:31.595Z,78.58
2024-04-12T02:05:59.357Z,78.68
2024-04-12T02:08:29.345Z,78.69
2024-04-12T02:10:57.094Z,78.77
2024-04-12T02:13:38.708Z,78.77
2024-04-12T02:16:07.393Z,78.76
2024-04-12T02:18:37.727Z,78.89
2024-04-12T02:21:06.670Z,78.97
2024-04-12T02:23:39.098Z,79.05
2024-04-12T02:26:06.367Z,79.03
2024-04-12T02:28:37.740Z,79.10
2024-04-12T02:31:10.464Z,79.15
2024-04-12T02:33:43.976Z,79.15
2024-04-12T02:36:13.507Z,79.17
2024-04-12T02:38:44.915Z,79.20
2024-04-12T02:41:15.520Z,79.26
2024-04-12T02:43:53.227Z,79.28
2024-04-12T02:46:22.127Z,79.31
2024-04-12T02:48:52.921Z,79.31
2024-04-12T02:51:24.339Z,79.28
2024-04-12T02:53:59.413Z,79.36
2024-04-12T02:56:27.049Z,79.48
2024-04-12T02:58:58.856Z,79.62
2024-04-12T03:01:27.709Z,79.70
2024-04-12T03:04:01.484Z,79.67
2024-04-12T03:06:34.086Z,79.69
2024-04-12T03:09:06.761Z,79.77
2024-04-12T03:11:36.577Z,79.89
2024-04-12T03:14:13.908Z,79.95
2024-04-12T03:16:42.669Z,80.01
2024-04-12T03:19:17.235Z,80.03
2024-04-12T03:21:45.325Z,80.04
2024-04-12T03:24:15.413Z,80.10
2024-04-12T03:26:44.984Z,80.21
2024-04-12T03:29:18.480Z,80.24
2024-04-12T03:31:48.489Z,80.18
2024-04-12T03:34:18.980Z,80.25
2024-04-12T03:36:58.192Z,80.34
2024-04-12T03:39:33.891Z,80.44
2024-04-12T03:42:06.633Z,80.46
2024-04-12T03:44:44.134Z,80.55
2024-04-12T03:47:13.182Z,80.57
2024-04-12T03:49:45.633Z,80.52
2024-04-12T03:52:16.914Z,80.50
2024-04-12T03:54:49.848Z,80.66
2024-04-12T03:57:17.548Z,80.74
2024-04-12T03:59:48.009Z,80.87
2024-04-12T04:02:20.501Z,80.94
2024-04-12T04:04:49.363Z,80.74
2024-04-12T04:07:21.386Z,80.84
2024-04-12T04:09:49.050Z,80.98
2024-04-12T04:12:19.497Z,80.97
2024-04-12T04:14:50.306Z,80.95
2024-04-12T04:17:31.751Z,81.09
2024-04-12T04:20:00.233Z,81.12
2024-04-12T04:22:43.417Z,81.13
2024-04-12T04:25:15.185Z,81.17
2024-04-12T04:27:42.485Z,81.17
2024-04-12T04:30:18.172Z,81.24
2024-04-12T04:32:45.917Z,81.28
2024-04-12T04:35:15.783Z,81.24
2024-04-12T04:37:43.144Z,81.25
2024-04-12T04:40:19.145Z,81.16
2024-04-12T04:42:52.164Z,81.31
2024-04-12T04:45:23.652Z,81.31
2024-04-12T04:47:52.123Z,81.37
2024-04-12T04:50:22.831Z,81.46
2024-04-12T04:52:52.604Z,81.45
2024-04-12T04:55:22.736Z,81.48
2024-04-12T04:57:56.995Z,81.44
2024-04-12T05:00:29.528Z,81.43
2024-04-12T05:02:57.303Z,81.44
2024-04-12T05:05:29.807Z,81.26
2024-04-12T05:07:59.477Z,81.26
2024-04-12T05:10:36.268Z,81.18
2024-04-12T05:13:07.356Z,81.22
2024-04-12T05:15:55.939Z,81.23
2024-04-12T05:18:23.615Z,81.24
2024-04-12T05:20:53.666Z,81.62
2024-04-12T05:23:22.655Z,81.67
2024-04-12T05:25:52.761Z,81.46
2024-04-12T05:28:21.357Z,81.28
2024-04-12T05:30:56.689Z,81.15
2024-04-12T05:33:26.342Z,81.02
2024-04-12T05:35:56.458Z,80.86
2024-04-12T05:38:25.682Z,80.70
2024-04-12T05:40:58.786Z,80.50
2024-04-12T05:43:26.763Z,80.20
2024-04-12T05:45:58.880Z,79.90
2024-04-12T05:48:26.642Z,79.74
2024-04-12T05:50:58.689Z,79.75
2024-04-12T05:53:27.408Z,79.75
2024-04-12T05:56:17.390Z,79.83
2024-04-12T05:58:44.654Z,79.84
2024-04-12T06:01:14.698Z,79.93
2024-04-12T06:03:44.420Z,79.90
2024-04-12T06:06:15.390Z,79.84
2024-04-12T06:08:43.678Z,79.83
2024-04-12T06:11:14.650Z,79.84
2024-04-12T06:13:42.113Z,79.92
2024-04-12T06:16:12.984Z,79.70
2024-04-12T06:18:40.292Z,79.44
2024-04-12T06:21:12.043Z,79.42
2024-04-12T06:23:39.753Z,79.36
2024-04-12T06:26:10.256Z,79.13
2024-04-12T06:28:39.279Z,78.91
2024-04-12T06:31:09.183Z,78.90
2024-04-12T06:33:36.797Z,78.73
2024-04-12T06:36:13.476Z,78.97
2024-04-12T06:38:41.205Z,79.04
2024-04-12T06:41:11.852Z,79.08
2024-04-12T06:43:44.018Z,79.39
2024-04-12T06:46:15.006Z,79.44
2024-04-12T06:48:43.210Z,79.50
2024-04-12T06:51:15.695Z,79.71
2024-04-12T06:53:46.158Z,79.85
2024-04-12T06:56:18.282Z,79.98
2024-04-12T06:58:47.647Z,79.76
2024-04-12T07:01:23.804Z,79.74
2024-04-12T07:03:54.530Z,79.86
2024-04-12T07:06:27.001Z,79.47
2024-04-12T07:08:54.355Z,79.39
2024-04-12T07:11:25.923Z,79.37
2024-04-12T07:13:54.884Z,79.32
2024-04-12T07:16:25.272Z,79.10
2024-04-12T07:18:52.998Z,78.82
2024-04-12T07:21:24.925Z,78.53
2024-04-12T07:23:55.411Z,78.03
2024-04-12T07:26:29.491Z,77.44
2024-04-12T07:28:59.653Z,77.25
2024-04-12T07:31:38.549Z,77.15
2024-04-12T07:34:07.263Z,76.77
2024-04-12T07:36:38.826Z,76.84
2024-04-12T07:39:09.840Z,76.60
2024-04-12T07:41:45.224Z,76.61
2024-04-12T07:44:13.787Z,76.44
2024-04-12T07:46:50.811Z,75.92
2024-04-12T07:49:19.353Z,76.05
2024-04-12T07:51:50.975Z,75.96
2024-04-12T07:54:19.490Z,75.99
2024-04-12T07:56:51.310Z,75.53
2024-04-12T07:59:26.532Z,75.06
2024-04-12T08:01:59.144Z,74.98
2024-04-12T08:04:30.910Z,74.93
2024-04-12T08:07:00.803Z,74.61
2024-04-12T08:09:36.335Z,73.69
2024-04-12T08:12:15.384Z,74.10
2024-04-12T08:14:53.446Z,74.60
2024-04-12T08:17:25.972Z,74.83
2024-04-12T08:19:57.037Z,74.85
2024-04-12T08:22:27.961Z,75.14
2024-04-12T08:24:56.268Z,74.63
2024-04-12T08:27:31.755Z,74.29
2024-04-12T08:29:59.719Z,73.87
2024-04-12T08:32:35.092Z,73.97
2024-04-12T08:35:08.563Z,74.07
2024-04-12T08:37:40.979Z,73.80
2024-04-12T08:40:12.025Z,73.22
2024-04-12T08:42:43.594Z,73.02
2024-04-12T08:45:20.295Z,72.69
2024-04-12T08:48:03.706Z,72.62
2024-04-12T08:50:33.424Z,72.82
2024-04-12T08:53:06.711Z,73.14
2024-04-12T08:55:36.529Z,72.83
2024-04-12T08:58:08.504Z,72.44
2024-04-12T09:00:37.355Z,72.58
2024-04-12T09:03:13.255Z,72.40
2024-04-12T09:05:43.654Z,72.53
2024-04-12T09:08:19.544Z,72.90
2024-04-12T09:10:47.724Z,73.16
2024-04-12T09:13:21.275Z,72.87
2024-04-12T09:15:51.679Z,72.63
2024-04-12T09:18:28.519Z,72.38
2024-04-12T09:21:04.178Z,72.53
2024-04-12T09:23:38.328Z,72.46
2024-04-12T09:26:23.701Z,72.26
2024-04-12T09:29:03.286Z,72.34
2024-04-12T09:31:50.984Z,72.19
2024-04-12T09:34:31.513Z,72.08
2024-04-12T09:37:03.908Z,71.65
2024-04-12T09:39:53.472Z,71.20
2024-04-12T09:42:29.432Z,71.15
2024-04-12T09:45:01.607Z,70.74
2024-04-12T09:47:47.994Z,71.14
2024-04-12T09:50:49.817Z,70.78
2024-04-12T09:53:38.106Z,70.11
2024-04-12T09:56:28.238Z,70.03
2024-04-12T09:59:25.064Z,70.31
2024-04-12T10:02:15.668Z,68.71
2024-04-12T10:05:02.113Z,69.03
2024-04-12T10:07:49.216Z,67.96
2024-04-12T10:10:36.121Z,68.08
2024-04-12T10:13:24.424Z,68.98
2024-04-12T10:16:17.168Z,68.50
2024-04-12T10:19:03.445Z,67.42
2024-04-12T10:21:49.942Z,67.57
2024-04-12T10:24:35.791Z,67.36
2024-04-12T10:27:21.901Z,67.14
2024-04-12T10:30:10.543Z,66.83
2024-04-12T10:32:59.993Z,67.75
2024-04-12T10:35:46.348Z,67.54
2024-04-12T10:38:27.508Z,67.23
2024-04-12T10:41:09.423Z,68.04
2024-04-12T10:43:40.697Z,68.44
2024-04-12T10:46:12.066Z,68.28
2024-04-12T10:48:45.963Z,68.36
2024-04-12T10:51:17.019Z,69.10
2024-04-12T10:53:50.814Z,68.87
2024-04-12T10:56:21.198Z,68.37
2024-04-12T10:58:53.996Z,68.34
2024-04-12T11:01:24.942Z,67.87
2024-04-12T11:04:01.059Z,67.89
2024-04-12T11:06:33.256Z,67.00
2024-04-12T11:09:10.418Z,66.72
2024-04-12T11:11:40.201Z,66.24
2024-04-12T11:14:17.364Z,66.19
2024-04-12T11:17:05.188Z,65.54
2024-04-12T11:19:54.440Z,63.99
2024-04-12T11:22:47.303Z,63.78
2024-04-12T11:25:34.157Z,63.50
2024-04-12T11:28:20.463Z,63.54
2024-04-12T11:31:06.769Z,62.70
2024-04-12T11:33:47.860Z,62.08
2024-04-12T11:36:21.528Z,61.95
2024-04-12T11:38:55.405Z,61.63
2024-04-12T11:41:25.399Z,60.69
2024-04-12T11:43:56.346Z,61.15
2024-04-12T11:46:25.710Z,61.24
2024-04-12T11:48:58.407Z,61.74
2024-04-12T11:51:34.648Z,60.97
2024-04-12T11:54:06.788Z,59.08
2024-04-12T11:56:34.120Z,58.86
2024-04-12T11:59:04.532Z,59.60
2024-04-12T12:01:33.525Z,58.88
2024-04-12T12:04:07.067Z,59.09
2024-04-12T12:06:34.465Z,60.25
2024-04-12T12:09:13.417Z,60.53
2024-04-12T12:11:44.697Z,59.37
2024-04-12T12:14:14.912Z,59.91
2024-04-12T12:16:42.171Z,58.87
2024-04-12T12:19:14.493Z,58.93
2024-04-12T12:21:43.058Z,58.85
2024-04-12T12:24:14.072Z,58.21
2024-04-12T12:26:41.792Z,58.84
2024-04-12T12:29:14.781Z,59.40
2024-04-12T12:31:45.842Z,59.27
2024-04-12T12:34:16.396Z,58.92
2024-04-12T12:36:45.368Z,58.66
2024-04-12T12:39:15.302Z,59.30
2024-04-12T12:41:47.032Z,58.03
2024-04-12T12:44:19.691Z,57.08
2024-04-12T12:46:47.108Z,56.47
2024-04-12T12:49:20.327Z,57.55
2024-04-12T12:51:49.425Z,56.36
2024-04-12T12:54:19.936Z,56.44
2024-04-12T12:56:47.806Z,56.90
2024-04-12T12:59:22.585Z,57.33
2024-04-12T13:01:53.116Z,57.74
2024-04-12T13:04:23.433Z,57.50
2024-04-12T13:06:50.865Z,57.05
2024-04-12T13:09:21.014Z,56.16
2024-04-12T13:11:48.324Z,57.42
2024-04-12T13:14:19.035Z,56.75
2024-04-12T13:16:50.642Z,57.08
2024-04-12T13:19:22.620Z,57.82
2024-04-12T13:21:50.484Z,57.04
2024-04-12T13:24:20.727Z,57.45
2024-04-12T13:26:51.962Z,56.90
2024-04-12T13:29:27.700Z,56.21
2024-04-12T13:31:58.585Z,56.89
2024-04-12T13:34:28.653Z,57.13
2024-04-12T13:36:59.613Z,57.15
2024-04-12T13:39:36.270Z,57.58
2024-04-12T13:42:05.226Z,57.91
2024-04-12T13:44:47.855Z,57.79
2024-04-12T13:47:34.243Z,57.83
2024-04-12T13:50:21.004Z,57.67
2024-04-12T13:52:54.767Z,57.59
2024-04-12T13:55:24.906Z,58.07
2024-04-12T13:57:54.637Z,57.86
2024-04-12T14:00:31.897Z,57.76
2024-04-12T14:03:00.631Z,58.37
2024-04-12T14:05:36.053Z,57.85
2024-04-12T14:08:08.979Z,57.73
2024-04-12T14:10:42.552Z,57.94
2024-04-12T14:13:18.713Z,57.16
2024-04-12T14:15:51.633Z,57.31
2024-04-12T14:18:19.684Z,57.58
2024-04-12T14:20:50.217Z,57.98
2024-04-12T14:23:18.672Z,58.44
2024-04-12T14:25:49.743Z,58.07
2024-04-12T14:28:17.540Z,57.77
2024-04-12T14:30:48.721Z,58.56
2024-04-12T14:33:16.688Z,58.02
2024-04-12T14:35:47.630Z,58.69
2024-04-12T14:38:17.469Z,58.43
2024-04-12T14:40:53.631Z,58.33
2024-04-12T14:43:21.490Z,57.50
2024-04-12T14:45:52.118Z,57.94
2024-04-12T14:48:20.080Z,57.67
2024-04-12T14:50:51.470Z,58.05
2024-04-12T14:53:19.336Z,57.83
2024-04-12T14:55:51.310Z,58.21
2024-04-12T14:58:21.925Z,58.39
2024-04-12T15:00:53.934Z,59.00
2024-04-12T15:03:40.339Z,58.55
2024-04-12T15:06:27.495Z,58.38
2024-04-12T15:09:20.890Z,58.85
2024-04-12T15:12:07.504Z,59.16
2024-04-12T15:14:55.540Z,58.40
2024-04-12T15:17:42.927Z,58.04
2024-04-12T15:20:29.227Z,57.96
2024-04-12T15:23:16.058Z,58.39
2024-04-12T15:26:02.211Z,58.21
2024-04-12T15:28:48.991Z,59.05
2024-04-12T15:31:35.350Z,58.66
2024-04-12T15:34:22.290Z,58.94
2024-04-12T15:37:08.917Z,59.60
2024-04-12T15:39:55.746Z,59.26
2024-04-12T15:42:41.792Z,58.97
2024-04-12T15:45:28.193Z,59.06
2024-04-12T15:47:59.132Z,59.53
2024-04-12T15:50:34.235Z,59.87
2024-04-12T15:53:19.696Z,60.75
2024-04-12T15:56:20.956Z,60.00
2024-04-12T15:59:07.528Z,59.18
2024-04-12T16:01:53.812Z,59.59
2024-04-12T16:04:40.801Z,59.59
2024-04-12T16:07:41.861Z,59.70
2024-04-12T16:10:27.965Z,60.26
2024-04-12T16:12:58.867Z,60.60
2024-04-12T16:15:29.294Z,60.75
2024-04-12T16:18:00.123Z,60.99
2024-04-12T16:20:32.409Z,61.12
2024-04-12T16:23:00.586Z,61.87
2024-04-12T16:25:31.330Z,61.96
2024-04-12T16:27:59.317Z,61.58
2024-04-12T16:30:32.611Z,62.03
2024-04-12T16:33:00.797Z,61.97
2024-04-12T16:35:31.618Z,62.30
2024-04-12T16:38:03.154Z,62.40
2024-04-12T16:40:35.737Z,63.05
2024-04-12T16:43:06.723Z,63.01
2024-04-12T16:45:37.925Z,63.11
2024-04-12T16:48:06.923Z,63.16
2024-04-12T16:50:37.415Z,64.45
2024-04-12T16:53:05.371Z,64.65
2024-04-12T16:55:35.863Z,64.66
2024-04-12T16:58:10.580Z,64.78
2024-04-12T17:00:47.427Z,64.98
2024-04-12T17:03:16.290Z,65.11
2024-04-12T17:05:49.400Z,64.89
2024-04-12T17:08:17.256Z,64.81
2024-04-12T17:10:47.993Z,65.28
2024-04-12T17:13:15.930Z,65.02
2024-04-12T17:15:46.238Z,65.16
2024-04-12T17:18:13.743Z,65.45
2024-04-12T17:20:46.102Z,65.80
2024-04-12T17:23:15.111Z,65.90
2024-04-12T17:25:46.009Z,65.82
2024-04-12T17:28:13.464Z,66.45
2024-04-12T17:30:43.642Z,66.93
2024-04-12T17:33:11.122Z,65.87
2024-04-12T17:35:41.063Z,66.27
2024-04-12T17:38:08.357Z,66.56
2024-04-12T17:40:39.517Z,66.77
2024-04-12T17:43:06.765Z,67.09
2024-04-12T17:45:36.586Z,67.44
2024-04-12T17:48:04.159Z,67.53
2024-04-12T17:50:34.258Z,67.58
2024-04-12T17:53:02.855Z,67.73
2024-04-12T17:55:32.999Z,67.77
2024-04-12T17:58:05.563Z,68.89
2024-04-12T18:00:35.848Z,69.66
2024-04-12T18:03:03.335Z,69.81
2024-04-12T18:05:33.777Z,69.53
2024-04-12T18:08:01.061Z,69.93
2024-04-12T18:10:30.936Z,69.60
2024-04-12T18:12:58.198Z,69.28
2024-04-12T18:15:29.101Z,69.61
2024-04-12T18:17:56.607Z,69.58
2024-04-12T18:20:26.511Z,69.00
2024-04-12T18:22:54.854Z,69.29
2024-04-12T18:25:24.671Z,69.48
2024-04-12T18:27:51.921Z,69.09
2024-04-12T18:30:21.816Z,69.41
2024-04-12T18:32:49.164Z,69.46
2024-04-12T18:35:20.853Z,69.36
2024-04-12T18:38:07.156Z,70.00
2024-04-12T18:40:52.984Z,69.89
2024-04-12T18:43:38.733Z,70.21
2024-04-12T18:46:08.558Z,69.94
2024-04-12T18:48:38.698Z,69.96
2024-04-12T18:51:06.625Z,70.40
2024-04-12T18:53:36.552Z,70.37
2024-04-12T18:56:04.126Z,70.54
2024-04-12T18:58:35.358Z,70.36
2024-04-12T19:01:05.039Z,70.70
2024-04-12T19:03:35.288Z,70.79
2024-04-12T19:06:07.599Z,70.97
2024-04-12T19:08:37.814Z,71.07
2024-04-12T19:11:07.784Z,70.89
2024-04-12T19:13:38.430Z,71.29
2024-04-12T19:16:09.703Z,71.60
2024-04-12T19:18:37.108Z,71.94
2024-04-12T19:21:10.570Z,72.14
2024-04-12T19:24:15.428Z,72.43
2024-04-12T19:26:45.411Z,72.73
2024-04-12T19:29:13.033Z,72.83
2024-04-12T19:31:45.716Z,73.11
2024-04-12T19:34:14.565Z,73.41
2024-04-12T19:36:46.134Z,73.54
2024-04-12T19:39:13.964Z,73.78
2024-04-12T19:41:44.007Z,74.03
2024-04-12T19:44:11.467Z,74.27
2024-04-12T19:46:41.338Z,74.59
2024-04-12T19:49:09.169Z,74.83
2024-04-12T19:51:39.554Z,75.18
2024-04-12T19:54:06.933Z,75.30
2024-04-12T19:56:36.843Z,75.50
2024-04-12T19:59:04.251Z,75.70
2024-04-12T20:01:34.057Z,75.89
2024-04-12T20:04:01.623Z,76.11
2024-04-12T20:06:35.150Z,76.13
2024-04-12T20:09:02.563Z,76.46
2024-04-12T20:14:02.213Z,76.74
2024-04-12T20:16:32.298Z,76.98
2024-04-12T20:19:00.836Z,77.19
2024-04-12T20:21:33.775Z,77.18
2024-04-12T20:24:02.073Z,77.37
2024-04-12T20:26:37.413Z,77.52
2024-04-12T20:29:08.085Z,77.71
2024-04-12T20:31:39.096Z,77.69
2024-04-12T20:34:25.606Z,77.75
2024-04-12T20:36:55.519Z,77.95
2024-04-12T20:39:23.561Z,78.06
2024-04-12T20:41:58.204Z,78.17
2024-04-12T20:44:27.440Z,78.33
2024-04-12T20:46:58.591Z,78.33
2024-04-12T20:49:26.080Z,78.33
2024-04-12T20:51:55.981Z,78.38
2024-04-12T20:54:23.906Z,78.45
2024-04-12T20:56:53.961Z,78.59
2024-04-12T20:59:21.905Z,78.67
2024-04-12T21:01:54.843Z,78.66
2024-04-12T21:04:22.424Z,78.72
2024-04-12T21:07:09.724Z,78.73
2024-04-12T21:09:41.043Z,78.90
2024-04-12T21:12:10.306Z,78.99
2024-04-12T21:14:43.807Z,79.10
2024-04-12T21:17:13.075Z,79.27
2024-04-12T21:19:42.982Z,79.31
2024-04-12T21:22:10.313Z,79.38
2024-04-12T21:24:40.765Z,79.52
2024-04-12T21:27:09.009Z,79.64
2024-04-12T21:29:39.734Z,79.75
2024-04-12T21:32:07.537Z,79.87
2024-04-12T21:34:37.437Z,79.89
2024-04-12T21:37:05.503Z,80.02
2024-04-12T21:39:35.556Z,80.10
2024-04-12T21:42:02.862Z,80.18
2024-04-12T21:44:32.680Z,80.28
2024-04-12T21:46:59.991Z,80.36
2024-04-12T21:49:32.773Z,80.48
2024-04-12T21:52:00.043Z,80.60
2024-04-12T21:54:29.934Z,80.64
2024-04-12T21:56:57.359Z,80.82
2024-04-12T21:59:27.552Z,80.87
2024-04-12T22:01:55.063Z,81.01
2024-04-12T22:04:27.621Z,81.09
2024-04-12T22:06:55.514Z,81.23
2024-04-12T22:09:25.321Z,81.27
2024-04-12T22:11:52.741Z,81.18
2024-04-12T22:14:23.874Z,81.16
2024-04-12T22:16:52.153Z,81.15
2024-04-12T22:19:22.472Z,81.01
2024-04-12T22:21:50.140Z,81.02
2024-04-12T22:24:20.005Z,81.02
2024-04-12T22:26:49.388Z,81.10
2024-04-12T22:29:19.832Z,81.08
2024-04-12T22:31:49.369Z,81.16
2024-04-12T22:34:22.007Z,81.13
2024-04-12T22:36:52.170Z,81.10
2024-04-12T22:39:22.946Z,81.05
2024-04-12T22:41:50.197Z,80.99
2024-04-12T22:44:19.985Z,80.93
2024-04-12T22:46:48.959Z,80.80
2024-04-12T22:49:20.798Z,80.69
2024-04-12T22:51:48.129Z,80.65
2024-04-12T22:54:18.662Z,80.65
2024-04-12T22:56:45.883Z,80.68
2024-04-12T22:59:15.861Z,80.74
2024-04-12T23:01:43.405Z,80.84
2024-04-12T23:04:13.872Z,80.91
2024-04-12T23:06:41.969Z,80.94
2024-04-12T23:09:12.004Z,81.00
2024-04-12T23:11:39.240Z,81.09
2024-04-12T23:14:09.059Z,81.13
2024-04-12T23:16:37.405Z,81.12
2024-04-12T23:19:07.589Z,81.21
2024-04-12T23:21:34.936Z,81.34
2024-04-12T23:24:05.069Z,81.50
2024-04-12T23:26:32.679Z,81.67
2024-04-12T23:29:02.484Z,81.82
2024-04-12T23:31:29.772Z,81.94
2024-04-12T23:33:59.634Z,82.12
2024-04-12T23:36:27.010Z,82.30
2024-04-12T23:38:57.284Z,82.45
2024-04-12T23:41:24.522Z,82.66
2024-04-12T23:43:55.235Z,82.77
2024-04-12T23:46:24.012Z,82.94
2024-04-12T23:48:54.592Z,83.04
2024-04-12T23:51:21.989Z,83.16
2024-04-12T23:53:51.999Z,83.24
2024-04-12T23:56:19.264Z,83.33
2024-04-12T23:58:49.134Z,83.45
